Time;durP1;ratioP1;P1;durP2;ratioP2;P2;SDS_P1;SDS_P2;PMS_P1;PMS_P2;Temp;Humidity;BMP_temperature;BMP_pressure;BME280_temperature;BME280_humidity;BME280_pressure;Samples;Min_cycle;Max_cycle;Signal;HPM_P1;HPM_P2
2021/08/03 00:21:54;;;;;;;0.20;0.20;;;;;;;26.07;52.30;98813.97;5008909;28;19925;-56
2021/08/03 00:24:24;;;;;;;0.00;0.00;;;;;;;26.03;52.17;98812.72;4992606;28;20405;-55
2021/08/03 00:26:54;;;;;;;0.10;0.10;;;;;;;26.05;52.11;98817.84;5010743;28;20474;-56
2021/08/03 00:29:20;;;;;;;0.77;0.38;;;;;;;26.03;52.18;98828.78;4993462;28;20050;-55
2021/08/03 00:31:49;;;;;;;0.10;0.10;;;;;;;25.99;52.22;98832.06;4993247;28;20123;-56
2021/08/03 00:34:15;;;;;;;0.13;0.13;;;;;;;26.01;52.24;98827.34;4993009;28;20488;-54
2021/08/03 00:37:01;;;;;;;0.00;0.00;;;;;;;25.98;52.30;98825.88;4996046;28;20057;-54
2021/08/03 00:39:49;;;;;;;0.00;0.00;;;;;;;25.96;52.39;98829.81;4995808;28;20084;-52
2021/08/03 00:42:38;;;;;;;0.10;0.10;;;;;;;25.92;52.55;98835.56;4996512;28;20093;-56
2021/08/03 00:45:23;;;;;;;0.10;0.10;;;;;;;25.94;52.26;98837.22;5010901;28;20050;-54
2021/08/03 00:48:12;;;;;;;0.10;0.10;;;;;;;25.93;52.27;98839.06;4995766;28;20046;-54
2021/08/03 00:50:58;;;;;;;0.13;0.13;;;;;;;25.79;52.54;98813.34;5010407;28;20680;-54
2021/08/03 00:53:44;;;;;;;0.10;0.10;;;;;;;25.91;52.34;98835.78;4995789;28;20048;-53
2021/08/03 00:56:31;;;;;;;0.15;0.15;;;;;;;25.91;52.45;98841.16;4995808;28;20188;-55
2021/08/03 00:59:17;;;;;;;0.10;0.10;;;;;;;25.88;52.55;98839.69;4995444;28;20500;-55
2021/08/03 01:02:07;;;;;;;0.10;0.10;;;;;;;25.82;52.45;98837.84;4995431;28;20558;-56
2021/08/03 01:04:54;;;;;;;0.10;0.10;;;;;;;25.86;52.38;98844.44;4995441;28;20273;-57
2021/08/03 01:07:43;;;;;;;0.10;0.10;;;;;;;25.82;52.37;98843.19;4995556;28;20041;-55
2021/08/03 01:11:03;;;;;;;0.00;0.00;;;;;;;25.82;52.50;98861.91;4982667;28;20129;-53
2021/08/03 01:14:11;;;;;;;0.38;0.38;;;;;;;25.81;52.39;98851.44;4995594;28;20046;-54
2021/08/03 01:17:02;;;;;;;0.10;0.10;;;;;;;25.78;52.48;98860.69;4995272;28;20057;-57
2021/08/03 01:20:00;;;;;;;0.10;0.10;;;;;;;25.78;52.52;98868.72;4990968;28;20581;-55
2021/08/03 01:23:24;;;;;;;0.15;0.15;;;;;;;25.76;52.60;98872.59;4990504;28;20104;-55
2021/08/03 01:26:45;;;;;;;0.10;0.10;;;;;;;25.71;52.72;98867.88;4975692;28;20141;-54
2021/08/03 01:29:31;;;;;;;0.00;0.00;;;;;;;25.70;52.54;98876.09;4992111;28;20069;-55
2021/08/03 01:32:25;;;;;;;0.00;0.00;;;;;;;25.71;52.68;98883.94;4989116;28;20065;-56
2021/08/03 01:35:11;;;;;;;0.00;0.00;;;;;;;25.70;52.66;98884.97;4988808;28;20116;-55
2021/08/03 01:37:59;;;;;;;0.08;0.08;;;;;;;25.66;52.43;98870.34;4962206;28;20245;-53
2021/08/03 01:40:45;;;;;;;0.00;0.00;;;;;;;25.67;52.64;98872.00;4975722;28;20062;-55
2021/08/03 01:43:32;;;;;;;0.10;0.10;;;;;;;25.67;52.37;98877.34;4975826;28;20046;-54
2021/08/03 01:46:18;;;;;;;0.38;0.22;;;;;;;25.68;52.32;98884.34;4975674;28;20050;-54
2021/08/03 01:49:05;;;;;;;0.20;0.20;;;;;;;25.70;52.42;98886.81;4988965;28;20129;-55
2021/08/03 01:51:53;;;;;;;0.10;0.10;;;;;;;25.74;52.22;98896.06;4989292;28;20148;-54
2021/08/03 01:54:39;;;;;;;0.00;0.00;;;;;;;25.72;52.21;98896.25;4975745;28;20050;-53
2021/08/03 01:57:26;;;;;;;0.13;0.13;;;;;;;25.77;52.29;98901.00;4988918;28;20050;-54
2021/08/03 02:00:13;;;;;;;0.10;0.10;;;;;;;25.80;52.17;98898.75;4988496;28;20093;-55
2021/08/03 02:03:07;;;;;;;0.10;0.10;;;;;;;25.78;51.84;98884.78;4988592;28;20070;-55
2021/08/03 02:05:56;;;;;;;0.15;0.15;;;;;;;26.00;51.59;98898.75;4989376;28;20427;-54
2021/08/03 02:08:49;;;;;;;0.10;0.10;;;;;;;26.18;50.85;98895.47;4975630;28;20583;-57
2021/08/03 02:11:39;;;;;;;0.10;0.10;;;;;;;26.47;50.29;98896.88;4989028;28;20051;-55
2021/08/03 02:14:27;;;;;;;0.10;0.10;;;;;;;26.82;49.14;98908.97;4988717;28;20050;-55
2021/08/03 02:17:23;;;;;;;0.10;0.10;;;;;;;26.90;48.79;98917.59;4962826;28;20108;-54
2021/08/03 02:20:20;;;;;;;0.13;0.13;;;;;;;26.98;48.66;98908.50;4988198;28;20050;-54
2021/08/03 02:23:12;;;;;;;0.10;0.10;;;;;;;27.49;47.20;98916.50;4988491;28;20109;-55
2021/08/03 02:26:03;;;;;;;0.10;0.10;;;;;;;27.92;46.41;98928.19;4975197;28;20405;-53
2021/08/03 02:28:51;;;;;;;0.10;0.10;;;;;;;27.59;46.59;98924.91;4988680;28;20050;-54
2021/08/03 02:31:47;;;;;;;0.08;0.08;;;;;;;27.46;47.02;98922.31;4988855;28;20102;-55
2021/08/03 02:34:50;;;;;;;0.10;0.10;;;;;;;27.33;47.35;98933.91;4975425;28;20042;-55
2021/08/03 02:37:37;;;;;;;0.10;0.10;;;;;;;27.20;47.52;98946.53;4988576;28;20058;-54
2021/08/03 02:40:26;;;;;;;;;;;;;;;27.08;47.92;98948.25;4975873;28;20050;-54
2021/08/03 02:43:22;;;;;;;0.08;0.08;;;;;;;26.96;48.23;98940.06;4988260;28;19922;-53
2021/08/03 02:46:14;;;;;;;0.10;0.10;;;;;;;26.95;48.08;98945.59;4974936;28;20050;-56
2021/08/03 02:49:04;;;;;;;0.00;0.00;;;;;;;26.95;48.23;98940.25;4992340;28;20409;-55
2021/08/03 02:51:50;;;;;;;0.10;0.10;;;;;;;27.01;48.34;98939.41;4993266;28;20548;-55
2021/08/03 02:54:36;;;;;;;0.10;0.10;;;;;;;27.08;47.79;98949.06;4991991;28;20539;-54
2021/08/03 02:57:25;;;;;;;0.10;0.10;;;;;;;27.37;47.37;98956.56;4992141;28;20043;-54
2021/08/03 03:00:13;;;;;;;0.10;0.10;;;;;;;28.22;45.25;98957.94;4991647;28;20582;-54
2021/08/03 03:03:00;;;;;;;0.20;0.20;;;;;;;28.64;44.05;98967.03;4992946;28;20054;-54
2021/08/03 03:05:47;;;;;;;0.20;0.20;;;;;;;29.50;42.07;98958.88;4978261;28;20050;-55
2021/08/03 03:08:34;;;;;;;0.20;0.20;;;;;;;30.28;40.29;98959.56;4991649;28;20101;-55
2021/08/03 03:11:21;;;;;;;0.20;0.20;;;;;;;30.82;39.12;98969.22;4978075;28;20431;-53
2021/08/03 03:14:07;;;;;;;0.10;0.10;;;;;;;30.75;38.78;98965.00;4991510;28;20048;-57
2021/08/03 03:16:55;;;;;;;0.10;0.10;;;;;;;30.67;39.18;98981.50;4978409;28;20057;-55
2021/08/03 03:19:42;;;;;;;0.15;0.15;;;;;;;30.74;39.09;98984.91;4977945;28;20062;-53
2021/08/03 03:22:28;;;;;;;0.10;0.10;;;;;;;30.52;39.20;98982.00;4991432;28;20042;-55
2021/08/03 03:25:23;;;;;;;0.10;0.10;;;;;;;30.56;39.20;98988.56;4991212;28;20085;-52
2021/08/03 03:28:09;;;;;;;0.20;0.20;;;;;;;31.03;38.16;98985.84;4992262;28;20503;-55
2021/08/03 03:30:56;;;;;;;0.20;0.20;;;;;;;31.65;36.94;98995.78;4992942;28;20065;-53
2021/08/03 03:33:42;;;;;;;0.20;0.20;;;;;;;32.08;36.26;99000.66;4991077;28;20054;-54
2021/08/03 03:36:30;;;;;;;0.20;0.20;;;;;;;32.33;35.59;98998.38;4991199;28;20046;-54
2021/08/03 03:39:16;;;;;;;0.20;0.20;;;;;;;32.62;35.11;98999.16;4990803;28;20047;-56
2021/08/03 03:42:10;;;;;;;0.35;0.35;;;;;;;32.87;34.41;99020.34;4978727;28;20046;-52
2021/08/03 03:44:59;;;;;;;0.20;0.20;;;;;;;33.03;34.42;99028.44;4991490;28;20568;-53
2021/08/03 03:48:06;;;;;;;0.20;0.20;;;;;;;33.20;33.71;99036.53;4991142;28;20516;-55
2021/08/03 03:51:01;;;;;;;0.20;0.20;;;;;;;33.33;33.76;99035.34;4990873;28;20148;-56
2021/08/03 03:53:50;;;;;;;0.20;0.20;;;;;;;33.50;33.29;99033.41;4990596;28;20061;-55
2021/08/03 03:56:41;;;;;;;0.20;0.20;;;;;;;33.59;32.82;99033.75;4977677;28;20065;-56
2021/08/03 03:59:27;;;;;;;0.30;0.30;;;;;;;33.73;32.74;99022.31;4990326;28;20054;-57
2021/08/03 04:02:14;;;;;;;0.20;0.20;;;;;;;33.83;32.38;99035.16;4990647;28;20042;-55
2021/08/03 04:05:01;;;;;;;0.20;0.20;;;;;;;33.93;32.05;99030.66;4990636;28;20065;-54
2021/08/03 04:07:50;;;;;;;0.20;0.20;;;;;;;34.11;31.90;99042.22;4991764;28;20113;-55
2021/08/03 04:10:37;;;;;;;0.20;0.20;;;;;;;34.24;31.76;99039.09;4991603;28;20109;-53
2021/08/03 04:13:24;;;;;;;0.73;0.73;;;;;;;34.40;31.45;99051.72;4991403;28;20042;-55
2021/08/03 04:16:10;;;;;;;0.20;0.20;;;;;;;34.47;31.28;99052.34;4991444;28;20137;-54
2021/08/03 04:18:56;;;;;;;0.20;0.20;;;;;;;34.65;30.83;99043.03;4991833;28;20058;-58
2021/08/03 04:21:46;;;;;;;0.27;0.27;;;;;;;34.80;30.55;99052.09;4992607;28;20516;-56
2021/08/03 04:24:32;;;;;;;0.20;0.20;;;;;;;34.89;30.36;99047.78;4977046;28;20113;-54
2021/08/03 04:27:18;;;;;;;0.20;0.20;;;;;;;34.86;30.14;99037.47;4990045;28;20579;-57
2021/08/03 04:30:05;;;;;;;0.10;0.10;;;;;;;34.89;30.52;99049.69;4991298;28;20038;-58
2021/08/03 04:32:51;;;;;;;1.30;1.08;;;;;;;34.84;30.50;99061.34;4990189;28;20057;-57
2021/08/03 04:35:37;;;;;;;0.20;0.20;;;;;;;34.94;30.28;99061.41;4990929;28;20050;-54
2021/08/03 04:38:23;;;;;;;0.30;0.30;;;;;;;35.12;29.97;99070.22;4990946;28;20149;-56
2021/08/03 04:41:09;;;;;;;0.30;0.30;;;;;;;35.32;29.50;99073.88;4989781;28;20046;-58
2021/08/03 04:43:55;;;;;;;0.20;0.20;;;;;;;35.52;29.30;99065.81;4990877;28;20047;-57
2021/08/03 04:46:41;;;;;;;0.28;0.28;;;;;;;35.29;29.69;99070.88;4991098;28;20086;-55
2021/08/03 04:49:27;;;;;;;0.10;0.10;;;;;;;35.24;29.72;99071.69;4990628;28;20076;-56
2021/08/03 04:52:13;;;;;;;0.20;0.20;;;;;;;35.30;29.36;99072.50;4990730;28;20121;-57
2021/08/03 04:54:59;;;;;;;0.20;0.20;;;;;;;35.55;28.80;99061.75;4990797;28;20039;-58
2021/08/03 04:57:45;;;;;;;0.22;0.22;;;;;;;35.71;28.62;99074.34;4990916;28;20046;-56
2021/08/03 05:00:30;;;;;;;0.20;0.20;;;;;;;35.82;28.22;99064.31;4989261;28;20058;-54
2021/08/03 05:03:16;;;;;;;0.10;0.10;;;;;;;35.66;28.35;99087.91;4990771;28;20047;-57
2021/08/03 05:06:02;;;;;;;0.28;0.28;;;;;;;34.65;30.18;99081.00;4989680;28;20141;-54
2021/08/03 05:08:48;;;;;;;0.10;0.10;;;;;;;33.94;31.13;99085.66;4990756;28;20042;-54
2021/08/03 05:11:34;;;;;;;0.10;0.10;;;;;;;33.51;31.58;99086.47;4990237;28;20535;-56
2021/08/03 05:14:20;;;;;;;0.10;0.10;;;;;;;33.86;31.35;99083.41;4990307;28;20053;-54
2021/08/03 05:17:06;;;;;;;0.10;0.10;;;;;;;34.20;30.50;99084.06;4989526;28;20063;-55
2021/08/03 05:19:52;;;;;;;0.17;0.17;;;;;;;34.33;30.46;99091.78;4989026;28;20117;-55
2021/08/03 05:22:38;;;;;;;0.10;0.10;;;;;;;34.54;29.89;99102.56;4990503;28;20504;-54
2021/08/03 05:25:24;;;;;;;0.20;0.20;;;;;;;34.47;30.08;99103.84;4990000;28;20050;-55
2021/08/03 05:28:10;;;;;;;0.10;0.10;;;;;;;34.29;30.26;99105.06;4989098;28;20054;-57
2021/08/03 05:30:55;;;;;;;0.10;0.10;;;;;;;34.04;30.37;99108.28;4989060;28;20058;-55
2021/08/03 05:33:42;;;;;;;0.10;0.10;;;;;;;34.13;30.21;99113.28;4990402;28;20492;-57
2021/08/03 05:36:27;;;;;;;0.10;0.10;;;;;;;34.39;30.20;99109.75;4989948;28;20043;-56
2021/08/03 05:39:14;;;;;;;0.20;0.20;;;;;;;34.61;29.66;99101.56;4989188;28;20047;-55
2021/08/03 05:42:00;;;;;;;0.10;0.10;;;;;;;35.09;28.97;99098.69;4990304;28;20116;-54
2021/08/03 05:44:46;;;;;;;0.50;0.50;;;;;;;35.21;28.73;99091.19;4989090;28;20050;-55
2021/08/03 05:47:32;;;;;;;0.10;0.10;;;;;;;35.35;28.37;99107.81;4989950;28;20050;-55
2021/08/03 05:50:17;;;;;;;0.10;0.10;;;;;;;35.38;28.61;99099.97;4988993;28;20038;-54
2021/08/03 05:53:03;;;;;;;0.10;0.10;;;;;;;35.32;28.54;99103.75;4990419;28;20050;-56
2021/08/03 05:55:49;;;;;;;0.10;0.10;;;;;;;35.44;28.12;99109.78;4990205;28;20053;-54
2021/08/03 05:58:35;;;;;;;0.10;0.10;;;;;;;35.15;28.58;99099.56;4990044;28;20051;-56
2021/08/03 06:01:23;;;;;;;0.32;0.32;;;;;;;34.59;29.25;99101.00;4990428;28;20193;-58
2021/08/03 06:04:16;;;;;;;0.10;0.10;;;;;;;34.42;29.72;99098.41;4976430;28;20046;-55
2021/08/03 06:07:02;;;;;;;0.10;0.10;;;;;;;34.48;29.51;99111.75;4990137;28;20047;-56
2021/08/03 06:09:56;;;;;;;0.10;0.10;;;;;;;34.37;29.58;99125.44;4989887;28;20054;-58
2021/08/03 06:12:50;;;;;;;0.25;0.25;;;;;;;35.37;28.15;99122.75;4991190;28;20471;-59
2021/08/03 06:15:41;;;;;;;0.10;0.10;;;;;;;36.03;27.41;99133.97;4975881;28;20184;-55
2021/08/03 06:18:16;;;;;;;0.03;0.03;;;;;;;35.38;28.02;99140.72;4988634;28;20057;-57
2021/08/03 06:20:42;;;;;;;0.20;0.20;;;;;;;35.35;28.16;99140.41;4989535;28;20061;-54
2021/08/03 06:23:14;;;;;;;0.10;0.10;;;;;;;35.05;28.47;99146.41;4989896;28;20046;-57
2021/08/03 06:25:41;;;;;;;0.20;0.20;;;;;;;34.72;28.87;99149.44;4993482;28;20073;-54
2021/08/03 06:28:10;;;;;;;0.20;0.20;;;;;;;36.40;26.51;99152.84;4992132;28;20089;-55
2021/08/03 06:30:37;;;;;;;;;;;;;;;36.40;26.34;99155.59;4992248;28;20046;-57
2021/08/03 06:33:07;;;;;;;0.10;0.10;;;;;;;35.23;28.09;99169.66;4993503;28;19922;-58
2021/08/03 06:35:33;;;;;;;0.20;0.20;;;;;;;35.45;27.98;99173.06;4993134;28;20585;-58
2021/08/03 06:37:59;;;;;;;0.10;0.10;;;;;;;36.46;26.20;99151.78;4993205;28;20046;-56
2021/08/03 06:40:28;;;;;;;0.90;0.90;;;;;;;40.63;21.17;99167.78;4993129;28;20057;-56
2021/08/03 06:43:01;;;;;;;0.30;0.30;;;;;;;40.97;20.50;99179.28;4993420;28;20055;-56
2021/08/03 06:45:29;;;;;;;0.20;0.20;;;;;;;40.53;20.90;99176.16;4992982;28;20080;-58
2021/08/03 06:48:00;;;;;;;0.15;0.15;;;;;;;40.01;21.45;99179.81;4991916;28;20054;-57
2021/08/03 06:50:32;;;;;;;0.03;0.03;;;;;;;38.73;23.14;99170.38;4992772;28;20543;-57
2021/08/03 06:52:59;;;;;;;0.10;0.10;;;;;;;36.73;25.38;99176.88;4976598;28;20066;-58
2021/08/03 06:55:32;;;;;;;0.00;0.00;;;;;;;35.12;27.51;99159.81;4992731;28;20054;-57
2021/08/03 06:58:02;;;;;;;0.00;0.00;;;;;;;34.29;28.89;99174.72;4993037;28;20340;-57
2021/08/03 07:00:36;;;;;;;0.00;0.00;;;;;;;33.60;30.31;99187.88;4992969;28;20072;-52
2021/08/03 07:03:04;;;;;;;0.00;0.00;;;;;;;33.13;31.23;99194.72;4992842;28;20093;-53
2021/08/03 07:05:30;;;;;;;0.03;0.03;;;;;;;32.69;31.69;99191.78;4992661;28;20124;-52
2021/08/03 07:07:57;;;;;;;0.03;0.03;;;;;;;32.61;31.92;99194.91;4991620;28;20061;-56
2021/08/03 07:10:23;;;;;;;0.03;0.03;;;;;;;32.57;32.37;99185.63;4992263;28;20050;-54
2021/08/03 07:12:49;;;;;;;0.10;0.10;;;;;;;32.55;32.25;99203.94;4992851;28;20132;-55
2021/08/03 07:15:18;;;;;;;0.00;0.00;;;;;;;32.30;32.50;99177.25;4991078;28;20303;-54
2021/08/03 07:17:44;;;;;;;0.00;0.00;;;;;;;32.17;32.94;99217.22;4975333;28;20463;-56
2021/08/03 07:20:10;;;;;;;0.00;0.00;;;;;;;31.92;33.53;99214.81;4992319;28;20050;-59
2021/08/03 07:22:36;;;;;;;0.10;0.10;;;;;;;31.67;33.42;99212.38;4992206;28;20101;-56
2021/08/03 07:25:03;;;;;;;0.00;0.00;;;;;;;31.55;33.49;99210.72;4992450;28;20113;-57
2021/08/03 07:27:29;;;;;;;0.00;0.00;;;;;;;31.50;33.88;99208.75;4992276;28;20496;-56
2021/08/03 07:29:55;;;;;;;0.10;0.10;;;;;;;31.53;33.60;99204.75;4992343;28;20113;-55
2021/08/03 07:32:21;;;;;;;0.10;0.10;;;;;;;31.70;33.14;99209.22;4990769;28;20058;-55
2021/08/03 07:34:47;;;;;;;0.10;0.10;;;;;;;31.90;33.22;99223.13;4991891;28;20432;-56
2021/08/03 07:37:13;;;;;;;0.00;0.00;;;;;;;31.94;33.15;99209.97;4992320;28;20050;-54
2021/08/03 07:39:40;;;;;;;0.00;0.00;;;;;;;31.89;32.88;99210.69;4991978;28;20073;-55
2021/08/03 07:42:06;;;;;;;0.03;0.03;;;;;;;31.82;33.05;99212.69;4974999;28;20050;-54
2021/08/03 07:44:33;;;;;;;0.05;0.05;;;;;;;31.78;33.19;99203.44;4991841;28;20505;-56
2021/08/03 07:46:59;;;;;;;0.17;0.17;;;;;;;31.90;32.91;99208.81;4990659;28;20081;-55
2021/08/03 07:49:25;;;;;;;0.10;0.10;;;;;;;31.84;33.22;99213.28;4990568;28;20069;-58
2021/08/03 07:51:52;;;;;;;0.10;0.10;;;;;;;32.10;32.90;99213.88;4991800;28;20069;-58
2021/08/03 07:54:18;;;;;;;0.00;0.00;;;;;;;32.28;32.79;99214.50;4990584;28;20042;-58
2021/08/03 07:56:43;;;;;;;0.10;0.10;;;;;;;32.15;32.48;99211.25;4991896;28;20088;-56
2021/08/03 07:59:10;;;;;;;0.10;0.10;;;;;;;32.37;32.23;99215.75;4991838;28;20411;-56
2021/08/03 08:01:36;;;;;;;0.10;0.10;;;;;;;32.43;32.33;99213.97;4990089;28;20064;-55
2021/08/03 08:04:02;;;;;;;0.00;0.00;;;;;;;32.33;32.57;99208.41;4974399;28;20046;-55
2021/08/03 08:06:28;;;;;;;0.00;0.00;;;;;;;32.32;32.37;99209.44;4990163;28;20145;-55
2021/08/03 08:08:54;;;;;;;0.10;0.10;;;;;;;32.45;32.29;99211.88;4991702;28;20049;-54
2021/08/03 08:11:20;;;;;;;0.00;0.00;;;;;;;32.59;32.13;99223.25;4991295;28;20420;-56
2021/08/03 08:13:47;;;;;;;0.15;0.15;;;;;;;32.70;31.92;99208.84;4991598;28;20125;-55
2021/08/03 08:16:13;;;;;;;0.10;0.10;;;;;;;32.77;31.49;99204.94;4990017;28;20420;-54
2021/08/03 08:18:39;;;;;;;0.00;0.00;;;;;;;32.76;31.21;99197.88;4991179;28;20055;-55
2021/08/03 08:21:06;;;;;;;0.10;0.10;;;;;;;32.82;31.52;99209.63;4989866;28;20050;-54
2021/08/03 08:23:34;;;;;;;0.00;0.00;;;;;;;32.66;31.13;99188.78;4973579;28;20058;-55
2021/08/03 08:26:01;;;;;;;0.13;0.13;;;;;;;32.68;31.15;99202.84;4991165;28;20058;-56
2021/08/03 08:28:27;;;;;;;0.00;0.00;;;;;;;32.50;31.14;99195.72;4991227;28;20050;-55
2021/08/03 08:30:54;;;;;;;0.00;0.00;;;;;;;32.33;31.83;99203.78;4989953;28;20141;-54
2021/08/03 08:33:20;;;;;;;0.00;0.00;;;;;;;32.08;32.48;99194.34;4991162;28;20054;-58
2021/08/03 08:35:46;;;;;;;0.10;0.10;;;;;;;31.87;32.42;99196.59;4991194;28;20054;-56
2021/08/03 08:38:12;;;;;;;0.00;0.00;;;;;;;31.58;33.13;99200.28;4991011;28;20072;-56
2021/08/03 08:40:38;;;;;;;0.00;0.00;;;;;;;31.44;33.09;99204.25;4990692;28;20049;-58
2021/08/03 08:43:04;;;;;;;0.03;0.03;;;;;;;31.33;33.29;99202.34;4990949;28;20051;-57
2021/08/03 08:45:30;;;;;;;0.00;0.00;;;;;;;31.20;33.68;99207.97;4988648;28;20046;-57
2021/08/03 08:47:56;;;;;;;0.10;0.10;;;;;;;31.24;33.63;99198.38;4989603;28;20143;-57
2021/08/03 08:50:22;;;;;;;0.10;0.10;;;;;;;31.32;33.22;99196.13;4989363;28;20042;-57
2021/08/03 08:52:50;;;;;;;0.00;0.00;;;;;;;31.34;33.53;99204.00;4990775;28;20062;-55
2021/08/03 08:55:17;;;;;;;0.00;0.00;;;;;;;31.35;33.24;99209.16;4990659;28;20057;-57
2021/08/03 08:57:43;;;;;;;0.00;0.00;;;;;;;31.44;33.30;99218.56;4972871;28;20096;-56
2021/08/03 09:00:09;;;;;;;0.10;0.10;;;;;;;31.51;32.86;99223.06;4989003;28;20137;-54
2021/08/03 09:02:42;;;;;;;0.00;0.00;;;;;;;31.49;33.30;99221.38;4990089;28;20424;-56
2021/08/03 09:05:10;;;;;;;0.00;0.00;;;;;;;31.41;33.24;99219.00;4973605;28;20108;-58
2021/08/03 09:07:45;;;;;;;0.00;0.00;;;;;;;31.42;32.82;99211.75;4988966;28;20170;-56
2021/08/03 09:10:11;;;;;;;0.08;0.08;;;;;;;31.40;33.07;99224.66;4990409;28;20121;-56
2021/08/03 09:12:37;;;;;;;0.00;0.00;;;;;;;31.45;33.24;99238.25;4990092;28;20054;-56
2021/08/03 09:15:18;;;;;;;0.00;0.00;;;;;;;31.36;32.79;99208.13;4990485;28;20042;-55
2021/08/03 09:17:44;;;;;;;0.00;0.00;;;;;;;31.40;32.48;99219.25;4988706;28;20142;-55
2021/08/03 09:20:14;;;;;;;0.00;0.00;;;;;;;31.30;32.37;99230.63;4989562;28;20495;-55
2021/08/03 09:22:40;;;;;;;0.00;0.00;;;;;;;31.29;32.84;99242.47;4989121;28;20052;-54
2021/08/03 09:25:11;;;;;;;0.00;0.00;;;;;;;31.30;32.75;99240.59;4971794;28;20108;-54
2021/08/03 09:27:46;;;;;;;0.10;0.10;;;;;;;31.24;33.22;99241.53;4989154;28;20053;-55
2021/08/03 09:30:18;;;;;;;0.10;0.10;;;;;;;31.10;33.40;99235.53;4989261;28;20137;-56
2021/08/03 09:32:48;;;;;;;0.00;0.00;;;;;;;31.07;33.60;99245.97;4989184;28;20050;-56
2021/08/03 09:35:16;;;;;;;0.00;0.00;;;;;;;31.14;33.45;99242.13;4989289;28;20156;-57
2021/08/03 09:37:43;;;;;;;0.10;0.10;;;;;;;31.19;33.22;99233.31;4989130;28;20054;-56
2021/08/03 09:40:32;;;;;;;0.00;0.00;;;;;;;31.30;33.01;99236.03;4989134;28;20521;-55
2021/08/03 09:42:58;;;;;;;;;;;;;;;31.31;32.68;99237.69;4982197;28;20509;-52
2021/08/03 09:45:24;;;;;;;0.00;0.00;;;;;;;31.28;32.32;99221.13;4988829;28;19929;-56
2021/08/03 09:47:50;;;;;;;0.00;0.00;;;;;;;31.35;32.27;99243.41;4989133;28;20456;-55
2021/08/03 09:50:18;;;;;;;0.00;0.00;;;;;;;31.47;32.54;99244.25;4989206;28;20046;-55
2021/08/03 09:52:47;;;;;;;0.00;0.00;;;;;;;31.45;32.07;99246.34;4987559;28;20042;-57
2021/08/03 09:55:14;;;;;;;0.10;0.10;;;;;;;31.34;32.20;99247.19;4988970;28;20061;-58
2021/08/03 09:57:41;;;;;;;0.10;0.10;;;;;;;31.32;32.29;99243.88;4990897;28;20046;-56
2021/08/03 10:00:27;;;;;;;0.00;0.00;;;;;;;31.31;31.90;99250.34;4992325;28;20050;-57
2021/08/03 10:02:53;;;;;;;0.10;0.10;;;;;;;31.39;31.61;99247.28;4992467;28;20070;-57
2021/08/03 10:05:20;;;;;;;0.00;0.00;;;;;;;31.47;31.54;99241.56;4992281;28;20562;-57
2021/08/03 10:07:46;;;;;;;0.10;0.10;;;;;;;31.61;31.41;99256.50;4990730;28;20050;-56
2021/08/03 10:10:33;;;;;;;0.00;0.00;;;;;;;31.60;31.34;99246.78;4992056;28;20047;-55
2021/08/03 10:13:19;;;;;;;0.00;0.00;;;;;;;31.50;31.86;99249.22;4992303;28;20057;-58
2021/08/03 10:16:05;;;;;;;0.10;0.10;;;;;;;31.38;32.04;99240.28;4992365;28;20054;-57
2021/08/03 10:18:55;;;;;;;0.20;0.20;;;;;;;31.25;31.69;99245.91;4991252;28;20497;-57
2021/08/03 10:21:44;;;;;;;0.00;0.00;;;;;;;31.22;32.12;99255.25;4939062;28;1566328;-57
2021/08/03 10:24:31;;;;;;;0.10;0.10;;;;;;;31.09;32.43;99243.84;4993432;28;20132;-55
2021/08/03 10:27:17;;;;;;;0.00;0.00;;;;;;;31.09;32.66;99254.63;4992350;28;20057;-56
2021/08/03 10:30:04;;;;;;;0.00;0.00;;;;;;;31.01;32.66;99263.06;4993552;28;20583;-56
2021/08/03 10:32:52;;;;;;;0.00;0.00;;;;;;;30.94;32.41;99253.19;4993139;28;20053;-53
2021/08/03 10:35:49;;;;;;;0.10;0.10;;;;;;;30.90;32.59;99261.94;4992805;28;20108;-55
2021/08/03 10:38:35;;;;;;;0.10;0.10;;;;;;;31.05;32.45;99259.69;4992977;28;20051;-56
2021/08/03 10:41:21;;;;;;;0.05;0.05;;;;;;;31.10;32.46;99261.69;4993081;28;20129;-56
2021/08/03 10:44:07;;;;;;;0.10;0.10;;;;;;;30.93;32.49;99256.91;4993274;28;20077;-56
2021/08/03 10:46:52;;;;;;;0.10;0.10;;;;;;;30.81;32.66;99242.59;4991942;28;20069;-56
2021/08/03 10:49:55;;;;;;;0.00;0.00;;;;;;;30.91;32.86;99263.59;4992949;28;20100;-56
2021/08/03 10:52:53;;;;;;;0.00;0.00;;;;;;;30.93;32.85;99277.66;4992799;28;20046;-51
2021/08/03 10:55:43;;;;;;;0.10;0.10;;;;;;;30.91;32.83;99272.50;4991504;28;20051;-54
2021/08/03 10:58:29;;;;;;;0.00;0.00;;;;;;;30.82;33.07;99281.97;4992710;28;20042;-55
2021/08/03 11:01:43;;;;;;;0.10;0.10;;;;;;;30.68;33.07;99280.50;4992759;28;20106;-54
2021/08/03 11:04:44;;;;;;;0.00;0.00;;;;;;;30.62;32.87;99270.63;4992634;28;20517;-54
2021/08/03 11:07:31;;;;;;;0.20;0.20;;;;;;;30.68;32.80;99272.41;4992594;28;20634;-54
2021/08/03 11:10:19;;;;;;;0.10;0.10;;;;;;;30.66;33.02;99282.59;4992091;28;20050;-57
2021/08/03 11:13:05;;;;;;;0.03;0.03;;;;;;;30.80;32.60;99265.19;4992612;28;20500;-57
2021/08/03 11:15:50;;;;;;;0.00;0.00;;;;;;;31.02;32.42;99270.94;4977883;28;20463;-55
2021/08/03 11:18:43;;;;;;;0.10;0.10;;;;;;;31.02;31.98;99259.31;4991660;28;20149;-56
2021/08/03 11:21:30;;;;;;;0.00;0.00;;;;;;;31.02;31.73;99275.50;4992808;28;20062;-59
2021/08/03 11:24:30;;;;;;;0.00;0.00;;;;;;;30.93;31.72;99251.53;4991777;28;20046;-56
2021/08/03 11:27:23;;;;;;;0.10;0.10;;;;;;;31.11;31.51;99285.75;4991879;28;20090;-57
2021/08/03 11:30:10;;;;;;;0.00;0.00;;;;;;;31.17;31.49;99262.41;4978010;28;20425;-59
2021/08/03 11:32:56;;;;;;;0.00;0.00;;;;;;;31.09;31.21;99265.41;4992610;28;20513;-54
2021/08/03 11:35:42;;;;;;;0.10;0.10;;;;;;;30.92;31.52;99281.44;4992487;28;20112;-55
2021/08/03 11:38:30;;;;;;;0.10;0.10;;;;;;;30.82;31.52;99284.69;4990798;28;20615;-58
2021/08/03 11:41:16;;;;;;;0.35;0.35;;;;;;;30.77;31.73;99299.88;4992507;28;20054;-57
2021/08/03 11:44:02;;;;;;;0.00;0.00;;;;;;;30.69;31.79;99301.03;4992572;28;20051;-58
2021/08/03 11:47:09;;;;;;;0.10;0.10;;;;;;;30.63;32.06;99282.25;4990736;28;20121;-54
2021/08/03 11:49:54;;;;;;;0.00;0.00;;;;;;;30.60;32.49;99294.28;4991344;28;20050;-56
2021/08/03 11:52:41;;;;;;;0.00;0.00;;;;;;;30.46;32.75;99290.94;4992037;28;20046;-54
2021/08/03 11:55:27;;;;;;;0.00;0.00;;;;;;;30.38;33.02;99290.38;4991959;28;20050;-55
2021/08/03 11:58:19;;;;;;;0.00;0.00;;;;;;;30.23;33.15;99287.25;4990944;28;20050;-54
2021/08/03 12:01:05;;;;;;;0.10;0.10;;;;;;;30.19;33.07;99291.44;4991765;28;20069;-54
2021/08/03 12:03:51;;;;;;;0.00;0.00;;;;;;;30.25;33.20;99290.53;4991999;28;20061;-56
2021/08/03 12:06:37;;;;;;;0.00;0.00;;;;;;;30.34;33.16;99283.81;4991488;28;20468;-56
2021/08/03 12:09:34;;;;;;;0.10;0.10;;;;;;;30.41;32.72;99281.88;4991222;28;20046;-55
2021/08/03 12:12:21;;;;;;;0.00;0.00;;;;;;;30.45;32.54;99288.47;4991897;28;20084;-56
2021/08/03 12:15:08;;;;;;;0.00;0.00;;;;;;;30.48;32.72;99271.84;4992120;28;20120;-53
2021/08/03 12:18:08;;;;;;;0.10;0.10;;;;;;;30.55;32.24;99274.47;4991424;28;20137;-56
2021/08/03 12:20:55;;;;;;;0.10;0.10;;;;;;;30.29;32.71;99238.69;4989179;28;20057;-56
2021/08/03 12:23:46;;;;;;;0.08;0.08;;;;;;;30.46;32.60;99277.44;4996644;28;20163;-58
2021/08/03 12:26:39;;;;;;;0.22;0.22;;;;;;;30.31;32.63;99258.13;4997833;28;20061;-56
2021/08/03 12:29:34;;;;;;;0.00;0.00;;;;;;;30.51;32.46;99274.09;5011017;28;20057;-56
2021/08/03 12:32:39;;;;;;;0.10;0.10;;;;;;;30.51;32.44;99268.69;5010858;28;20103;-54
2021/08/03 12:35:25;;;;;;;0.00;0.00;;;;;;;30.35;32.57;99256.66;5011133;28;20488;-54
2021/08/03 12:38:17;;;;;;;0.10;0.10;;;;;;;30.36;32.96;99265.56;5010725;28;20127;-53
2021/08/03 12:41:17;;;;;;;0.00;0.00;;;;;;;30.32;32.74;99272.44;5010694;28;20049;-55
2021/08/03 12:44:06;;;;;;;0.10;0.10;;;;;;;30.25;33.01;99269.00;5010833;28;20056;-55
2021/08/03 12:46:52;;;;;;;0.00;0.00;;;;;;;30.22;32.88;99274.84;5010385;28;20508;-57
2021/08/03 12:49:39;;;;;;;0.20;0.20;;;;;;;30.19;33.21;99275.28;4995817;28;20107;-59
2021/08/03 12:52:24;;;;;;;0.10;0.10;;;;;;;30.14;33.36;99273.25;5010506;28;20053;-56
2021/08/03 12:55:23;;;;;;;0.00;0.00;;;;;;;30.05;33.38;99276.47;5010848;28;20053;-54
2021/08/03 12:58:09;;;;;;;0.10;0.10;;;;;;;30.04;33.34;99275.63;4997479;28;20053;-57
2021/08/03 13:00:55;;;;;;;0.00;0.00;;;;;;;29.97;33.53;99266.84;4981795;28;20050;-56
2021/08/03 13:03:41;;;;;;;0.03;0.03;;;;;;;29.92;33.49;99272.88;5010380;28;20046;-54